sensor_id;sensor_type;location;lat;lon;timestamp;temperature;humidity
51908;DHT22;39320;53.214;6.556;2023-07-29T00:01:44;20.00;99.90
51908;DHT22;39320;53.214;6.556;2023-07-29T00:04:12;20.00;99.90
51908;DHT22;39320;53.214;6.556;2023-07-29T00:06:37;20.00;99.90
51908;DHT22;39320;53.214;6.556;2023-07-29T00:09:03;19.90;99.90
51908;DHT22;39320;53.214;6.556;2023-07-29T00:11:29;20.00;99.90
51908;DHT22;39320;53.214;6.556;2023-07-29T00:13:55;19.90;99.90
51908;DHT22;39320;53.214;6.556;2023-07-29T00:16:21;19.90;99.90
51908;DHT22;39320;53.214;6.556;2023-07-29T00:18:48;19.90;99.90
51908;DHT22;39320;53.214;6.556;2023-07-29T00:21:14;19.90;99.90
51908;DHT22;39320;53.214;6.556;2023-07-29T00:23:40;19.90;99.90
51908;DHT22;39320;53.214;6.556;2023-07-29T00:26:06;19.80;99.90
51908;DHT22;39320;53.214;6.556;2023-07-29T00:28:32;19.80;99.90
51908;DHT22;39320;53.214;6.556;2023-07-29T00:30:57;19.80;99.90
51908;DHT22;39320;53.214;6.556;2023-07-29T00:33:23;19.80;99.90
51908;DHT22;39320;53.214;6.556;2023-07-29T00:35:49;19.80;99.90
51908;DHT22;39320;53.214;6.556;2023-07-29T00:38:15;19.80;99.90
51908;DHT22;39320;53.214;6.556;2023-07-29T00:40:41;19.80;99.90
51908;DHT22;39320;53.214;6.556;2023-07-29T00:43:06;19.80;99.90
51908;DHT22;39320;53.214;6.556;2023-07-29T00:45:32;19.80;99.90
51908;DHT22;39320;53.214;6.556;2023-07-29T00:47:59;19.80;99.90
51908;DHT22;39320;53.214;6.556;2023-07-29T00:50:25;19.70;99.90
51908;DHT22;39320;53.214;6.556;2023-07-29T00:52:54;19.70;99.90
51908;DHT22;39320;53.214;6.556;2023-07-29T00:55:20;19.70;99.90
51908;DHT22;39320;53.214;6.556;2023-07-29T00:57:46;19.70;99.90
51908;DHT22;39320;53.214;6.556;2023-07-29T01:00:17;19.70;99.90
51908;DHT22;39320;53.214;6.556;2023-07-29T01:02:43;19.70;99.90
51908;DHT22;39320;53.214;6.556;2023-07-29T01:05:12;19.70;99.90
51908;DHT22;39320;53.214;6.556;2023-07-29T01:07:53;19.60;99.90
51908;DHT22;39320;53.214;6.556;2023-07-29T01:10:43;19.70;99.90
51908;DHT22;39320;53.214;6.556;2023-07-29T01:13:37;19.60;99.90
51908;DHT22;39320;53.214;6.556;2023-07-29T01:16:12;19.60;99.90
51908;DHT22;39320;53.214;6.556;2023-07-29T01:18:39;19.60;99.90
51908;DHT22;39320;53.214;6.556;2023-07-29T01:21:08;19.60;99.90
51908;DHT22;39320;53.214;6.556;2023-07-29T01:23:35;19.60;99.90
51908;DHT22;39320;53.214;6.556;2023-07-29T01:26:02;19.50;99.90
51908;DHT22;39320;53.214;6.556;2023-07-29T01:28:29;19.50;99.90
51908;DHT22;39320;53.214;6.556;2023-07-29T01:31:21;19.50;99.90
51908;DHT22;39320;53.214;6.556;2023-07-29T01:34:06;19.50;99.90
51908;DHT22;39320;53.214;6.556;2023-07-29T01:36:37;19.40;99.90
51908;DHT22;39320;53.214;6.556;2023-07-29T01:39:06;19.40;99.90
51908;DHT22;39320;53.214;6.556;2023-07-29T01:41:34;19.40;99.90
51908;DHT22;39320;53.214;6.556;2023-07-29T01:44:01;19.40;99.90
51908;DHT22;39320;53.214;6.556;2023-07-29T01:46:27;19.30;99.90
51908;DHT22;39320;53.214;6.556;2023-07-29T01:48:53;19.30;99.90
51908;DHT22;39320;53.214;6.556;2023-07-29T01:51:18;19.30;99.90
51908;DHT22;39320;53.214;6.556;2023-07-29T01:53:44;19.30;99.90
51908;DHT22;39320;53.214;6.556;2023-07-29T01:56:10;19.30;99.90
51908;DHT22;39320;53.214;6.556;2023-07-29T01:58:36;19.30;99.90
51908;DHT22;39320;53.214;6.556;2023-07-29T02:01:02;19.30;99.90
51908;DHT22;39320;53.214;6.556;2023-07-29T02:03:28;19.20;99.90
51908;DHT22;39320;53.214;6.556;2023-07-29T02:05:53;19.20;99.90
51908;DHT22;39320;53.214;6.556;2023-07-29T02:08:19;19.20;99.90
51908;DHT22;39320;53.214;6.556;2023-07-29T02:10:45;19.20;99.90
51908;DHT22;39320;53.214;6.556;2023-07-29T02:13:11;19.10;99.90
51908;DHT22;39320;53.214;6.556;2023-07-29T02:15:37;19.10;99.90
51908;DHT22;39320;53.214;6.556;2023-07-29T02:18:03;19.10;99.90
51908;DHT22;39320;53.214;6.556;2023-07-29T02:20:29;19.10;99.90
51908;DHT22;39320;53.214;6.556;2023-07-29T02:22:55;19.00;99.90
51908;DHT22;39320;53.214;6.556;2023-07-29T02:25:20;19.10;99.90
51908;DHT22;39320;53.214;6.556;2023-07-29T02:27:46;19.00;99.90
51908;DHT22;39320;53.214;6.556;2023-07-29T02:30:12;19.00;99.90
51908;DHT22;39320;53.214;6.556;2023-07-29T02:32:38;19.00;99.90
51908;DHT22;39320;53.214;6.556;2023-07-29T02:35:04;19.00;99.90
51908;DHT22;39320;53.214;6.556;2023-07-29T02:37:30;19.00;99.90
51908;DHT22;39320;53.214;6.556;2023-07-29T02:39:56;18.90;99.90
51908;DHT22;39320;53.214;6.556;2023-07-29T02:42:22;18.90;99.90
51908;DHT22;39320;53.214;6.556;2023-07-29T02:44:48;18.90;99.90
51908;DHT22;39320;53.214;6.556;2023-07-29T02:47:14;18.90;99.90
51908;DHT22;39320;53.214;6.556;2023-07-29T02:49:39;18.90;99.90
51908;DHT22;39320;53.214;6.556;2023-07-29T02:52:05;18.90;99.90
51908;DHT22;39320;53.214;6.556;2023-07-29T02:54:31;18.90;99.90
51908;DHT22;39320;53.214;6.556;2023-07-29T02:56:56;18.80;99.90
51908;DHT22;39320;53.214;6.556;2023-07-29T02:59:22;18.70;99.90
51908;DHT22;39320;53.214;6.556;2023-07-29T03:01:48;18.70;99.90
51908;DHT22;39320;53.214;6.556;2023-07-29T03:04:14;18.70;99.90
51908;DHT22;39320;53.214;6.556;2023-07-29T03:06:39;18.70;99.90
51908;DHT22;39320;53.214;6.556;2023-07-29T03:09:05;18.60;99.90
51908;DHT22;39320;53.214;6.556;2023-07-29T03:11:31;18.60;99.90
51908;DHT22;39320;53.214;6.556;2023-07-29T03:13:57;18.60;99.90
51908;DHT22;39320;53.214;6.556;2023-07-29T03:16:23;18.70;99.90
51908;DHT22;39320;53.214;6.556;2023-07-29T03:18:49;18.70;99.90
51908;DHT22;39320;53.214;6.556;2023-07-29T03:21:15;18.70;99.90
51908;DHT22;39320;53.214;6.556;2023-07-29T03:23:41;18.70;99.90
51908;DHT22;39320;53.214;6.556;2023-07-29T03:26:07;18.70;99.90
51908;DHT22;39320;53.214;6.556;2023-07-29T03:28:42;18.70;99.90
51908;DHT22;39320;53.214;6.556;2023-07-29T03:31:09;18.70;99.90
51908;DHT22;39320;53.214;6.556;2023-07-29T03:33:35;18.60;99.90
51908;DHT22;39320;53.214;6.556;2023-07-29T03:36:01;18.60;99.90
51908;DHT22;39320;53.214;6.556;2023-07-29T03:38:27;18.60;99.90
51908;DHT22;39320;53.214;6.556;2023-07-29T03:40:53;18.60;99.90
51908;DHT22;39320;53.214;6.556;2023-07-29T03:43:19;18.60;99.90
51908;DHT22;39320;53.214;6.556;2023-07-29T03:45:45;18.50;99.90
51908;DHT22;39320;53.214;6.556;2023-07-29T03:48:10;18.50;99.90
51908;DHT22;39320;53.214;6.556;2023-07-29T03:50:37;18.50;99.90
51908;DHT22;39320;53.214;6.556;2023-07-29T03:53:04;18.50;99.90
51908;DHT22;39320;53.214;6.556;2023-07-29T03:55:30;18.50;99.90
51908;DHT22;39320;53.214;6.556;2023-07-29T03:58:00;18.40;99.90
51908;DHT22;39320;53.214;6.556;2023-07-29T04:00:26;18.50;99.90
51908;DHT22;39320;53.214;6.556;2023-07-29T04:02:52;18.50;99.90
51908;DHT22;39320;53.214;6.556;2023-07-29T04:05:18;18.50;99.90
51908;DHT22;39320;53.214;6.556;2023-07-29T04:07:44;18.50;99.90
51908;DHT22;39320;53.214;6.556;2023-07-29T04:10:10;18.50;99.90
51908;DHT22;39320;53.214;6.556;2023-07-29T04:12:37;18.40;99.90
51908;DHT22;39320;53.214;6.556;2023-07-29T04:15:03;18.40;99.90
51908;DHT22;39320;53.214;6.556;2023-07-29T04:17:29;18.40;99.90
51908;DHT22;39320;53.214;6.556;2023-07-29T04:19:54;18.40;99.90
51908;DHT22;39320;53.214;6.556;2023-07-29T04:22:20;18.40;99.90
51908;DHT22;39320;53.214;6.556;2023-07-29T04:24:46;18.40;99.90
51908;DHT22;39320;53.214;6.556;2023-07-29T04:27:12;18.40;99.90
51908;DHT22;39320;53.214;6.556;2023-07-29T04:29:38;18.40;99.90
51908;DHT22;39320;53.214;6.556;2023-07-29T04:32:04;18.40;99.90
51908;DHT22;39320;53.214;6.556;2023-07-29T04:34:30;18.40;99.90
51908;DHT22;39320;53.214;6.556;2023-07-29T04:36:56;18.40;99.90
51908;DHT22;39320;53.214;6.556;2023-07-29T04:39:22;18.30;99.90
51908;DHT22;39320;53.214;6.556;2023-07-29T04:41:47;18.30;99.90
51908;DHT22;39320;53.214;6.556;2023-07-29T04:44:13;18.40;99.90
51908;DHT22;39320;53.214;6.556;2023-07-29T04:46:39;18.40;99.90
51908;DHT22;39320;53.214;6.556;2023-07-29T04:49:05;18.30;99.90
51908;DHT22;39320;53.214;6.556;2023-07-29T04:51:31;18.30;99.90
51908;DHT22;39320;53.214;6.556;2023-07-29T04:53:59;18.30;99.90
51908;DHT22;39320;53.214;6.556;2023-07-29T04:56:25;18.30;99.90
51908;DHT22;39320;53.214;6.556;2023-07-29T04:58:51;18.30;99.90
51908;DHT22;39320;53.214;6.556;2023-07-29T05:01:17;18.30;99.90
51908;DHT22;39320;53.214;6.556;2023-07-29T05:03:43;18.30;99.90
51908;DHT22;39320;53.214;6.556;2023-07-29T05:06:09;18.30;99.90
51908;DHT22;39320;53.214;6.556;2023-07-29T05:08:35;18.40;99.90
51908;DHT22;39320;53.214;6.556;2023-07-29T05:11:01;18.40;99.90
51908;DHT22;39320;53.214;6.556;2023-07-29T05:13:27;18.40;99.90
51908;DHT22;39320;53.214;6.556;2023-07-29T05:15:52;18.40;99.90
51908;DHT22;39320;53.214;6.556;2023-07-29T05:18:18;18.30;99.90
51908;DHT22;39320;53.214;6.556;2023-07-29T05:20:44;18.30;99.90
51908;DHT22;39320;53.214;6.556;2023-07-29T05:23:10;18.30;99.90
51908;DHT22;39320;53.214;6.556;2023-07-29T05:25:36;18.40;99.90
51908;DHT22;39320;53.214;6.556;2023-07-29T05:28:02;18.40;99.90
51908;DHT22;39320;53.214;6.556;2023-07-29T05:30:28;18.40;99.90
51908;DHT22;39320;53.214;6.556;2023-07-29T05:32:57;18.40;99.90
51908;DHT22;39320;53.214;6.556;2023-07-29T05:35:23;18.40;99.90
51908;DHT22;39320;53.214;6.556;2023-07-29T05:37:49;18.40;99.90
51908;DHT22;39320;53.214;6.556;2023-07-29T05:40:15;18.40;99.90
51908;DHT22;39320;53.214;6.556;2023-07-29T05:42:42;18.40;99.90
51908;DHT22;39320;53.214;6.556;2023-07-29T05:45:08;18.40;99.90
51908;DHT22;39320;53.214;6.556;2023-07-29T05:47:34;18.30;99.90
51908;DHT22;39320;53.214;6.556;2023-07-29T05:49:59;18.40;99.90
51908;DHT22;39320;53.214;6.556;2023-07-29T05:52:30;18.40;99.90
51908;DHT22;39320;53.214;6.556;2023-07-29T05:54:56;18.40;99.90
51908;DHT22;39320;53.214;6.556;2023-07-29T05:57:21;18.40;99.90
51908;DHT22;39320;53.214;6.556;2023-07-29T05:59:47;18.30;99.90
51908;DHT22;39320;53.214;6.556;2023-07-29T06:02:14;18.50;99.90
51908;DHT22;39320;53.214;6.556;2023-07-29T06:04:39;18.40;99.90
51908;DHT22;39320;53.214;6.556;2023-07-29T06:07:06;18.40;99.90
51908;DHT22;39320;53.214;6.556;2023-07-29T06:09:32;18.40;99.90
51908;DHT22;39320;53.214;6.556;2023-07-29T06:11:57;18.40;99.90
51908;DHT22;39320;53.214;6.556;2023-07-29T06:14:23;18.40;99.90
51908;DHT22;39320;53.214;6.556;2023-07-29T06:16:49;18.40;99.90
51908;DHT22;39320;53.214;6.556;2023-07-29T06:19:15;18.40;99.90
51908;DHT22;39320;53.214;6.556;2023-07-29T06:21:41;18.40;99.90
51908;DHT22;39320;53.214;6.556;2023-07-29T06:24:07;18.40;99.90
51908;DHT22;39320;53.214;6.556;2023-07-29T06:26:33;18.40;99.90
51908;DHT22;39320;53.214;6.556;2023-07-29T06:28:58;18.40;99.90
51908;DHT22;39320;53.214;6.556;2023-07-29T06:31:24;18.40;99.90
51908;DHT22;39320;53.214;6.556;2023-07-29T06:33:50;18.40;99.90
51908;DHT22;39320;53.214;6.556;2023-07-29T06:36:16;18.50;99.90
51908;DHT22;39320;53.214;6.556;2023-07-29T06:38:41;18.50;99.90
51908;DHT22;39320;53.214;6.556;2023-07-29T06:41:07;18.60;99.90
51908;DHT22;39320;53.214;6.556;2023-07-29T06:43:33;18.60;99.90
51908;DHT22;39320;53.214;6.556;2023-07-29T06:45:59;18.60;99.90
51908;DHT22;39320;53.214;6.556;2023-07-29T06:48:25;18.60;99.90
51908;DHT22;39320;53.214;6.556;2023-07-29T06:50:50;18.60;99.90
51908;DHT22;39320;53.214;6.556;2023-07-29T06:53:16;18.60;99.90
51908;DHT22;39320;53.214;6.556;2023-07-29T06:55:43;18.60;99.90
51908;DHT22;39320;53.214;6.556;2023-07-29T06:58:09;18.60;99.90
51908;DHT22;39320;53.214;6.556;2023-07-29T07:00:35;18.70;99.90
51908;DHT22;39320;53.214;6.556;2023-07-29T07:03:01;18.60;99.90
51908;DHT22;39320;53.214;6.556;2023-07-29T07:05:27;18.60;99.90
51908;DHT22;39320;53.214;6.556;2023-07-29T07:07:53;18.60;99.90
51908;DHT22;39320;53.214;6.556;2023-07-29T07:10:19;18.60;99.90
51908;DHT22;39320;53.214;6.556;2023-07-29T07:12:44;18.60;99.90
51908;DHT22;39320;53.214;6.556;2023-07-29T07:15:10;18.70;99.90
51908;DHT22;39320;53.214;6.556;2023-07-29T07:17:36;18.70;99.90
51908;DHT22;39320;53.214;6.556;2023-07-29T07:20:02;18.70;99.90
51908;DHT22;39320;53.214;6.556;2023-07-29T07:22:29;18.70;99.90
51908;DHT22;39320;53.214;6.556;2023-07-29T07:24:54;18.70;99.90
51908;DHT22;39320;53.214;6.556;2023-07-29T07:27:20;18.70;99.90
51908;DHT22;39320;53.214;6.556;2023-07-29T07:29:46;18.70;99.90
51908;DHT22;39320;53.214;6.556;2023-07-29T07:32:12;18.70;99.90
51908;DHT22;39320;53.214;6.556;2023-07-29T07:34:38;18.70;99.90
51908;DHT22;39320;53.214;6.556;2023-07-29T07:37:03;18.70;99.90
51908;DHT22;39320;53.214;6.556;2023-07-29T07:39:31;18.70;99.90
51908;DHT22;39320;53.214;6.556;2023-07-29T07:41:57;18.80;99.90
51908;DHT22;39320;53.214;6.556;2023-07-29T07:44:22;18.80;99.90
51908;DHT22;39320;53.214;6.556;2023-07-29T07:46:48;18.90;99.90
51908;DHT22;39320;53.214;6.556;2023-07-29T07:49:14;18.90;99.90
51908;DHT22;39320;53.214;6.556;2023-07-29T07:51:40;18.90;99.90
51908;DHT22;39320;53.214;6.556;2023-07-29T07:54:05;19.00;99.90
51908;DHT22;39320;53.214;6.556;2023-07-29T07:56:32;19.00;99.90
51908;DHT22;39320;53.214;6.556;2023-07-29T07:58:57;19.00;99.90
51908;DHT22;39320;53.214;6.556;2023-07-29T08:01:23;19.00;99.90
51908;DHT22;39320;53.214;6.556;2023-07-29T08:03:49;19.10;99.90
51908;DHT22;39320;53.214;6.556;2023-07-29T08:06:15;19.10;99.90
51908;DHT22;39320;53.214;6.556;2023-07-29T08:08:40;19.10;99.90
51908;DHT22;39320;53.214;6.556;2023-07-29T08:11:06;19.20;99.90
51908;DHT22;39320;53.214;6.556;2023-07-29T08:13:32;19.30;99.90
51908;DHT22;39320;53.214;6.556;2023-07-29T08:15:58;19.30;99.90
51908;DHT22;39320;53.214;6.556;2023-07-29T08:18:23;19.30;99.90
51908;DHT22;39320;53.214;6.556;2023-07-29T08:20:54;19.30;99.90
51908;DHT22;39320;53.214;6.556;2023-07-29T08:23:21;19.30;99.90
51908;DHT22;39320;53.214;6.556;2023-07-29T08:25:58;19.40;99.90
51908;DHT22;39320;53.214;6.556;2023-07-29T08:28:35;19.30;99.90
51908;DHT22;39320;53.214;6.556;2023-07-29T08:31:02;19.40;99.90
51908;DHT22;39320;53.214;6.556;2023-07-29T08:33:28;19.50;99.90
51908;DHT22;39320;53.214;6.556;2023-07-29T08:35:54;19.50;99.90
51908;DHT22;39320;53.214;6.556;2023-07-29T08:38:21;19.60;99.90
51908;DHT22;39320;53.214;6.556;2023-07-29T08:41:16;19.60;99.90
51908;DHT22;39320;53.214;6.556;2023-07-29T08:46:20;19.50;99.90
51908;DHT22;39320;53.214;6.556;2023-07-29T08:48:46;19.50;99.90
51908;DHT22;39320;53.214;6.556;2023-07-29T08:51:12;19.70;99.90
51908;DHT22;39320;53.214;6.556;2023-07-29T08:53:39;19.50;99.90
51908;DHT22;39320;53.214;6.556;2023-07-29T08:56:06;19.50;99.90
51908;DHT22;39320;53.214;6.556;2023-07-29T08:58:32;19.50;99.90
51908;DHT22;39320;53.214;6.556;2023-07-29T09:00:59;19.60;99.90
51908;DHT22;39320;53.214;6.556;2023-07-29T09:03:25;19.60;99.90
51908;DHT22;39320;53.214;6.556;2023-07-29T09:05:51;19.60;99.90
51908;DHT22;39320;53.214;6.556;2023-07-29T09:08:17;19.80;99.90
51908;DHT22;39320;53.214;6.556;2023-07-29T09:10:43;19.80;99.90
51908;DHT22;39320;53.214;6.556;2023-07-29T09:13:09;19.80;99.90
51908;DHT22;39320;53.214;6.556;2023-07-29T09:15:36;19.90;99.90
51908;DHT22;39320;53.214;6.556;2023-07-29T09:18:10;19.90;99.90
51908;DHT22;39320;53.214;6.556;2023-07-29T09:20:36;19.90;99.90
51908;DHT22;39320;53.214;6.556;2023-07-29T09:23:02;19.90;99.90
51908;DHT22;39320;53.214;6.556;2023-07-29T09:25:29;19.90;99.90
51908;DHT22;39320;53.214;6.556;2023-07-29T09:28:02;20.00;99.90
51908;DHT22;39320;53.214;6.556;2023-07-29T09:30:32;19.90;99.90
51908;DHT22;39320;53.214;6.556;2023-07-29T09:32:58;20.00;99.90
51908;DHT22;39320;53.214;6.556;2023-07-29T09:35:27;20.00;99.90
51908;DHT22;39320;53.214;6.556;2023-07-29T09:37:53;20.10;99.90
51908;DHT22;39320;53.214;6.556;2023-07-29T09:40:19;20.10;99.90
51908;DHT22;39320;53.214;6.556;2023-07-29T09:42:52;20.10;99.90
51908;DHT22;39320;53.214;6.556;2023-07-29T09:45:23;20.20;99.90
51908;DHT22;39320;53.214;6.556;2023-07-29T09:47:50;20.10;99.90
51908;DHT22;39320;53.214;6.556;2023-07-29T09:50:16;20.10;99.90
51908;DHT22;39320;53.214;6.556;2023-07-29T09:52:42;20.20;99.90
51908;DHT22;39320;53.214;6.556;2023-07-29T09:55:12;20.20;99.90
51908;DHT22;39320;53.214;6.556;2023-07-29T09:57:40;20.30;99.90
51908;DHT22;39320;53.214;6.556;2023-07-29T10:00:07;20.30;99.90
51908;DHT22;39320;53.214;6.556;2023-07-29T10:02:41;20.30;99.90
51908;DHT22;39320;53.214;6.556;2023-07-29T10:05:08;20.30;99.90
51908;DHT22;39320;53.214;6.556;2023-07-29T10:07:37;20.20;99.90
51908;DHT22;39320;53.214;6.556;2023-07-29T10:10:04;20.40;99.90
51908;DHT22;39320;53.214;6.556;2023-07-29T10:12:31;20.40;99.90
51908;DHT22;39320;53.214;6.556;2023-07-29T10:15:03;20.40;99.90
51908;DHT22;39320;53.214;6.556;2023-07-29T10:17:30;20.50;99.90
51908;DHT22;39320;53.214;6.556;2023-07-29T10:19:59;20.50;99.90
51908;DHT22;39320;53.214;6.556;2023-07-29T10:22:28;20.40;99.90
51908;DHT22;39320;53.214;6.556;2023-07-29T10:24:59;20.60;99.90
51908;DHT22;39320;53.214;6.556;2023-07-29T10:27:28;20.60;99.90
51908;DHT22;39320;53.214;6.556;2023-07-29T10:29:55;20.60;99.90
51908;DHT22;39320;53.214;6.556;2023-07-29T10:32:25;20.50;99.90
51908;DHT22;39320;53.214;6.556;2023-07-29T10:34:52;20.60;99.90
51908;DHT22;39320;53.214;6.556;2023-07-29T10:37:18;20.70;99.90
51908;DHT22;39320;53.214;6.556;2023-07-29T10:39:56;20.60;99.90
51908;DHT22;39320;53.214;6.556;2023-07-29T10:42:22;20.70;99.90
51908;DHT22;39320;53.214;6.556;2023-07-29T10:44:52;20.70;99.90
51908;DHT22;39320;53.214;6.556;2023-07-29T10:47:24;20.70;99.90
51908;DHT22;39320;53.214;6.556;2023-07-29T10:49:55;20.60;99.90
51908;DHT22;39320;53.214;6.556;2023-07-29T10:52:32;20.60;99.90
51908;DHT22;39320;53.214;6.556;2023-07-29T10:55:55;20.70;99.90
51908;DHT22;39320;53.214;6.556;2023-07-29T10:58:17;20.60;99.90
51908;DHT22;39320;53.214;6.556;2023-07-29T11:00:46;20.60;99.90
51908;DHT22;39320;53.214;6.556;2023-07-29T11:03:13;20.60;99.90
51908;DHT22;39320;53.214;6.556;2023-07-29T11:05:49;20.60;99.90
51908;DHT22;39320;53.214;6.556;2023-07-29T11:08:29;20.70;99.90
51908;DHT22;39320;53.214;6.556;2023-07-29T11:13:29;20.60;99.90
51908;DHT22;39320;53.214;6.556;2023-07-29T11:15:55;20.60;99.90
51908;DHT22;39320;53.214;6.556;2023-07-29T11:18:30;20.60;99.90
51908;DHT22;39320;53.214;6.556;2023-07-29T11:20:57;20.40;99.90
51908;DHT22;39320;53.214;6.556;2023-07-29T11:23:31;20.40;99.90
51908;DHT22;39320;53.214;6.556;2023-07-29T11:25:57;20.40;99.90
51908;DHT22;39320;53.214;6.556;2023-07-29T11:28:24;20.30;99.90
51908;DHT22;39320;53.214;6.556;2023-07-29T11:30:51;20.20;99.90
51908;DHT22;39320;53.214;6.556;2023-07-29T11:33:24;20.10;99.90
51908;DHT22;39320;53.214;6.556;2023-07-29T11:35:51;20.10;99.90
51908;DHT22;39320;53.214;6.556;2023-07-29T11:38:17;20.20;99.90
51908;DHT22;39320;53.214;6.556;2023-07-29T11:40:57;20.20;99.90
51908;DHT22;39320;53.214;6.556;2023-07-29T11:43:23;20.30;99.90
51908;DHT22;39320;53.214;6.556;2023-07-29T11:45:49;20.40;99.90
51908;DHT22;39320;53.214;6.556;2023-07-29T11:48:16;20.40;99.90
51908;DHT22;39320;53.214;6.556;2023-07-29T11:50:42;20.40;99.90
51908;DHT22;39320;53.214;6.556;2023-07-29T11:53:08;20.50;99.90
51908;DHT22;39320;53.214;6.556;2023-07-29T11:55:34;20.50;99.90
51908;DHT22;39320;53.214;6.556;2023-07-29T11:58:01;20.60;99.90
51908;DHT22;39320;53.214;6.556;2023-07-29T12:00:28;20.60;99.90
51908;DHT22;39320;53.214;6.556;2023-07-29T12:02:54;20.60;99.90
51908;DHT22;39320;53.214;6.556;2023-07-29T12:05:23;20.50;99.90
51908;DHT22;39320;53.214;6.556;2023-07-29T12:07:50;20.50;99.90
51908;DHT22;39320;53.214;6.556;2023-07-29T12:10:17;20.50;99.90
51908;DHT22;39320;53.214;6.556;2023-07-29T12:12:50;20.50;99.90
51908;DHT22;39320;53.214;6.556;2023-07-29T12:15:27;20.50;99.90
51908;DHT22;39320;53.214;6.556;2023-07-29T12:17:55;20.50;99.90
51908;DHT22;39320;53.214;6.556;2023-07-29T12:20:22;20.50;99.90
51908;DHT22;39320;53.214;6.556;2023-07-29T12:22:56;20.50;99.90
51908;DHT22;39320;53.214;6.556;2023-07-29T12:25:22;20.50;99.90
51908;DHT22;39320;53.214;6.556;2023-07-29T12:27:48;20.60;99.90
51908;DHT22;39320;53.214;6.556;2023-07-29T12:30:14;20.60;99.90
51908;DHT22;39320;53.214;6.556;2023-07-29T12:32:47;20.60;99.90
51908;DHT22;39320;53.214;6.556;2023-07-29T12:35:13;20.60;99.90
51908;DHT22;39320;53.214;6.556;2023-07-29T12:37:39;20.50;99.90
51908;DHT22;39320;53.214;6.556;2023-07-29T12:40:30;20.60;99.90
51908;DHT22;39320;53.214;6.556;2023-07-29T12:42:56;20.60;99.90
51908;DHT22;39320;53.214;6.556;2023-07-29T12:45:21;20.50;99.90
51908;DHT22;39320;53.214;6.556;2023-07-29T12:47:52;20.40;99.90
51908;DHT22;39320;53.214;6.556;2023-07-29T12:50:18;20.50;99.90
51908;DHT22;39320;53.214;6.556;2023-07-29T12:52:44;20.40;99.90
51908;DHT22;39320;53.214;6.556;2023-07-29T12:55:10;20.50;99.90
51908;DHT22;39320;53.214;6.556;2023-07-29T12:57:43;20.40;99.90
51908;DHT22;39320;53.214;6.556;2023-07-29T13:00:09;20.50;99.90
51908;DHT22;39320;53.214;6.556;2023-07-29T13:02:35;20.50;99.90
51908;DHT22;39320;53.214;6.556;2023-07-29T13:05:01;20.50;99.90
51908;DHT22;39320;53.214;6.556;2023-07-29T13:07:27;20.50;99.90
51908;DHT22;39320;53.214;6.556;2023-07-29T13:09:52;20.50;99.90
51908;DHT22;39320;53.214;6.556;2023-07-29T13:12:18;20.50;99.90
51908;DHT22;39320;53.214;6.556;2023-07-29T13:14:45;20.40;99.90
51908;DHT22;39320;53.214;6.556;2023-07-29T13:17:10;20.40;99.90
51908;DHT22;39320;53.214;6.556;2023-07-29T13:19:36;20.40;99.90
51908;DHT22;39320;53.214;6.556;2023-07-29T13:22:02;20.40;99.90
51908;DHT22;39320;53.214;6.556;2023-07-29T13:24:28;20.40;99.90
51908;DHT22;39320;53.214;6.556;2023-07-29T13:26:54;20.40;99.90
51908;DHT22;39320;53.214;6.556;2023-07-29T13:29:20;20.50;99.90
51908;DHT22;39320;53.214;6.556;2023-07-29T13:31:45;20.40;99.90
51908;DHT22;39320;53.214;6.556;2023-07-29T13:34:11;20.50;99.90
51908;DHT22;39320;53.214;6.556;2023-07-29T13:36:37;20.50;99.90
51908;DHT22;39320;53.214;6.556;2023-07-29T13:39:03;20.60;99.90
51908;DHT22;39320;53.214;6.556;2023-07-29T13:41:29;20.60;99.90
51908;DHT22;39320;53.214;6.556;2023-07-29T13:43:54;20.60;99.90
51908;DHT22;39320;53.214;6.556;2023-07-29T13:46:20;20.50;99.90
51908;DHT22;39320;53.214;6.556;2023-07-29T13:48:46;20.50;99.90
51908;DHT22;39320;53.214;6.556;2023-07-29T13:51:12;20.50;99.90
51908;DHT22;39320;53.214;6.556;2023-07-29T13:53:38;20.40;99.90
51908;DHT22;39320;53.214;6.556;2023-07-29T13:56:04;20.40;99.90
51908;DHT22;39320;53.214;6.556;2023-07-29T13:58:30;20.30;99.90
51908;DHT22;39320;53.214;6.556;2023-07-29T14:00:56;20.30;99.90
51908;DHT22;39320;53.214;6.556;2023-07-29T14:03:22;20.30;99.90
51908;DHT22;39320;53.214;6.556;2023-07-29T14:05:48;20.30;99.90
51908;DHT22;39320;53.214;6.556;2023-07-29T14:08:14;20.30;99.90
51908;DHT22;39320;53.214;6.556;2023-07-29T14:10:39;20.40;99.90
51908;DHT22;39320;53.214;6.556;2023-07-29T14:13:05;20.50;99.90
51908;DHT22;39320;53.214;6.556;2023-07-29T14:15:31;20.60;99.90
51908;DHT22;39320;53.214;6.556;2023-07-29T14:17:58;20.70;99.90
51908;DHT22;39320;53.214;6.556;2023-07-29T14:20:24;20.70;99.90
51908;DHT22;39320;53.214;6.556;2023-07-29T14:22:50;20.80;99.90
51908;DHT22;39320;53.214;6.556;2023-07-29T14:25:15;20.90;99.90
51908;DHT22;39320;53.214;6.556;2023-07-29T14:27:41;20.90;99.90
51908;DHT22;39320;53.214;6.556;2023-07-29T14:30:08;20.90;99.90
51908;DHT22;39320;53.214;6.556;2023-07-29T14:32:33;21.00;99.90
51908;DHT22;39320;53.214;6.556;2023-07-29T14:34:59;21.20;99.90
51908;DHT22;39320;53.214;6.556;2023-07-29T14:37:30;21.20;99.90
51908;DHT22;39320;53.214;6.556;2023-07-29T14:39:57;21.40;99.90
51908;DHT22;39320;53.214;6.556;2023-07-29T14:42:23;21.40;99.90
51908;DHT22;39320;53.214;6.556;2023-07-29T14:44:49;21.40;99.90
51908;DHT22;39320;53.214;6.556;2023-07-29T14:47:15;21.30;99.90
51908;DHT22;39320;53.214;6.556;2023-07-29T14:49:41;21.30;99.90
51908;DHT22;39320;53.214;6.556;2023-07-29T14:52:07;21.20;99.90
51908;DHT22;39320;53.214;6.556;2023-07-29T14:54:33;21.30;99.90
51908;DHT22;39320;53.214;6.556;2023-07-29T14:56:59;21.40;99.90
51908;DHT22;39320;53.214;6.556;2023-07-29T14:59:25;21.50;99.90
51908;DHT22;39320;53.214;6.556;2023-07-29T15:01:50;21.60;99.90
51908;DHT22;39320;53.214;6.556;2023-07-29T15:04:16;21.70;99.90
51908;DHT22;39320;53.214;6.556;2023-07-29T15:06:42;21.70;99.90
51908;DHT22;39320;53.214;6.556;2023-07-29T15:09:08;21.80;99.90
51908;DHT22;39320;53.214;6.556;2023-07-29T15:11:33;21.90;99.90
51908;DHT22;39320;53.214;6.556;2023-07-29T15:14:00;21.90;99.90
51908;DHT22;39320;53.214;6.556;2023-07-29T15:16:25;22.10;99.90
51908;DHT22;39320;53.214;6.556;2023-07-29T15:18:52;22.10;99.90
51908;DHT22;39320;53.214;6.556;2023-07-29T15:21:17;22.20;99.90
51908;DHT22;39320;53.214;6.556;2023-07-29T15:23:43;22.30;99.90
51908;DHT22;39320;53.214;6.556;2023-07-29T15:26:09;22.20;99.90
51908;DHT22;39320;53.214;6.556;2023-07-29T15:28:35;22.10;99.90
51908;DHT22;39320;53.214;6.556;2023-07-29T15:31:01;22.00;99.90
51908;DHT22;39320;53.214;6.556;2023-07-29T15:33:27;21.90;99.90
51908;DHT22;39320;53.214;6.556;2023-07-29T15:35:53;21.90;99.90